Startpagina
METAR-TAF:

METAR-TAF

Vliegvelden :

Tasjkent, Oezbekistan

breedte: 41-16N, lengte: 069-16E, hoogte: 489 m

Actueel weer

Dit bericht is 22 minuten geleden gemaakt, om 17:30 UTC
Wind 8 kt uit het oosten
Temperatuur 29°C
Vochtigheid 43%
Druk 1002 hPa
Zicht 10 km of meer
geen wolken onder 1500 m en geen cumulonimbus

METAR: UTTT 181730Z 09008KT CAVOK 29/15 Q1002 R08R/CLRD70 NOSIG

Tijdstip: 22:52 (17:52 UTC)

Verwachting

Dit bericht is 52 minuten geleden gemaakt, om 17:00 UTC
Verwachting geldig van 18 om 18 UTC tot 19 om 18 UTC
Wind 12 kt uit het noordoosten
Zicht: 7000 m
Tijdelijke
van 19 om 06 UTC tot 19 om 18 UTC
Wind 10 kt uit het noordnoordwesten met uitschieters tot 20 kt

TAF: UTTT 181700Z 1818/1918 04012KT 7000 NSC TX40/1910Z TEMPO 1906/1918 33010G20KT

Waarnemingen en weersverwachtingen van meer dan 4000 vliegvelden (METAR en TAF).

De beschikbare stations zijn de gele en rode punten op de kaart.

Ga met uw muis naar het station om de naam te zien.

Klik dan om waarnemingen en weersverwachtingen te zien.

kaart wijzigen: klik op de groene knoppen met een zwart kruis om in te zoomen, op de groene knop met een streepje om uit te zoomen of op de groene pijlen voor aangrenzende kaarten.


METAR-TAF: